sensor_id;sensor_type;location;lat;lon;timestamp;temperature;humidity
16578;DHT22;8401;52.528;13.340;2023-03-31T00:02:18;11.40;99.90
16578;DHT22;8401;52.528;13.340;2023-03-31T00:04:46;11.30;99.90
16578;DHT22;8401;52.528;13.340;2023-03-31T00:07:18;11.40;99.90
16578;DHT22;8401;52.528;13.340;2023-03-31T00:09:47;11.30;99.90
16578;DHT22;8401;52.528;13.340;2023-03-31T00:12:14;11.40;99.90
16578;DHT22;8401;52.528;13.340;2023-03-31T00:14:41;11.30;99.90
16578;DHT22;8401;52.528;13.340;2023-03-31T00:17:07;11.30;99.90
16578;DHT22;8401;52.528;13.340;2023-03-31T00:19:33;11.40;99.90
16578;DHT22;8401;52.528;13.340;2023-03-31T00:21:59;11.40;99.90
16578;DHT22;8401;52.528;13.340;2023-03-31T00:24:27;11.40;99.90
16578;DHT22;8401;52.528;13.340;2023-03-31T00:27:00;11.40;99.90
16578;DHT22;8401;52.528;13.340;2023-03-31T00:29:26;11.40;99.90
16578;DHT22;8401;52.528;13.340;2023-03-31T00:31:53;11.30;99.90
16578;DHT22;8401;52.528;13.340;2023-03-31T00:34:20;11.30;99.90
16578;DHT22;8401;52.528;13.340;2023-03-31T00:36:45;11.30;99.90
16578;DHT22;8401;52.528;13.340;2023-03-31T00:39:16;11.40;99.90
16578;DHT22;8401;52.528;13.340;2023-03-31T00:41:43;11.40;99.90
16578;DHT22;8401;52.528;13.340;2023-03-31T00:46:43;11.40;99.90
16578;DHT22;8401;52.528;13.340;2023-03-31T00:49:17;11.30;99.90
16578;DHT22;8401;52.528;13.340;2023-03-31T00:51:46;11.30;99.90
16578;DHT22;8401;52.528;13.340;2023-03-31T00:54:12;11.20;99.90
16578;DHT22;8401;52.528;13.340;2023-03-31T00:56:43;11.20;99.90
16578;DHT22;8401;52.528;13.340;2023-03-31T00:59:10;11.20;99.90
16578;DHT22;8401;52.528;13.340;2023-03-31T01:01:38;11.20;99.90
16578;DHT22;8401;52.528;13.340;2023-03-31T01:04:07;11.10;99.90
16578;DHT22;8401;52.528;13.340;2023-03-31T01:06:38;11.20;99.90
16578;DHT22;8401;52.528;13.340;2023-03-31T01:09:11;11.10;99.90
16578;DHT22;8401;52.528;13.340;2023-03-31T01:11:38;11.10;99.90
16578;DHT22;8401;52.528;13.340;2023-03-31T01:14:04;11.20;99.90
16578;DHT22;8401;52.528;13.340;2023-03-31T01:16:30;11.20;99.90
16578;DHT22;8401;52.528;13.340;2023-03-31T01:18:58;11.20;99.90
16578;DHT22;8401;52.528;13.340;2023-03-31T01:24:38;10.90;99.90
16578;DHT22;8401;52.528;13.340;2023-03-31T01:41:02;10.90;99.90
16578;DHT22;8401;52.528;13.340;2023-03-31T01:46:36;10.90;99.90
16578;DHT22;8401;52.528;13.340;2023-03-31T01:54:36;11.10;99.90
16578;DHT22;8401;52.528;13.340;2023-03-31T01:57:25;10.90;99.90
16578;DHT22;8401;52.528;13.340;2023-03-31T02:02:58;10.80;99.90
16578;DHT22;8401;52.528;13.340;2023-03-31T02:05:28;10.80;99.90
16578;DHT22;8401;52.528;13.340;2023-03-31T02:08:00;10.90;99.90
16578;DHT22;8401;52.528;13.340;2023-03-31T02:10:29;10.80;99.90
16578;DHT22;8401;52.528;13.340;2023-03-31T02:12:57;10.80;99.90
16578;DHT22;8401;52.528;13.340;2023-03-31T02:15:30;10.80;99.90
16578;DHT22;8401;52.528;13.340;2023-03-31T02:17:59;10.80;99.90
16578;DHT22;8401;52.528;13.340;2023-03-31T02:20:28;10.80;99.90
16578;DHT22;8401;52.528;13.340;2023-03-31T02:22:57;10.90;99.90
16578;DHT22;8401;52.528;13.340;2023-03-31T02:25:27;10.80;99.90
16578;DHT22;8401;52.528;13.340;2023-03-31T02:28:02;10.90;99.90
16578;DHT22;8401;52.528;13.340;2023-03-31T02:30:48;10.90;99.90
16578;DHT22;8401;52.528;13.340;2023-03-31T02:33:15;11.00;99.90
16578;DHT22;8401;52.528;13.340;2023-03-31T02:35:42;11.00;99.90
16578;DHT22;8401;52.528;13.340;2023-03-31T02:38:07;11.00;99.90
16578;DHT22;8401;52.528;13.340;2023-03-31T02:40:34;11.00;99.90
16578;DHT22;8401;52.528;13.340;2023-03-31T02:43:00;10.90;99.90
16578;DHT22;8401;52.528;13.340;2023-03-31T02:50:57;10.90;99.90
16578;DHT22;8401;52.528;13.340;2023-03-31T03:02:03;10.90;99.90
16578;DHT22;8401;52.528;13.340;2023-03-31T03:07:52;10.90;99.90
16578;DHT22;8401;52.528;13.340;2023-03-31T03:16:03;11.00;99.90
16578;DHT22;8401;52.528;13.340;2023-03-31T03:18:30;11.10;99.90
16578;DHT22;8401;52.528;13.340;2023-03-31T03:20:56;11.10;99.90
16578;DHT22;8401;52.528;13.340;2023-03-31T03:23:21;11.10;99.90
16578;DHT22;8401;52.528;13.340;2023-03-31T03:25:47;11.10;99.90
16578;DHT22;8401;52.528;13.340;2023-03-31T03:28:13;11.00;99.90
16578;DHT22;8401;52.528;13.340;2023-03-31T03:30:39;11.00;99.90
16578;DHT22;8401;52.528;13.340;2023-03-31T03:33:04;11.00;99.90
16578;DHT22;8401;52.528;13.340;2023-03-31T03:35:32;11.00;99.90
16578;DHT22;8401;52.528;13.340;2023-03-31T03:37:58;11.00;99.90
16578;DHT22;8401;52.528;13.340;2023-03-31T03:40:23;11.00;99.90
16578;DHT22;8401;52.528;13.340;2023-03-31T03:42:49;11.10;99.90
16578;DHT22;8401;52.528;13.340;2023-03-31T03:45:14;11.10;99.90
16578;DHT22;8401;52.528;13.340;2023-03-31T03:47:40;11.10;99.90
16578;DHT22;8401;52.528;13.340;2023-03-31T03:50:06;11.10;99.90
16578;DHT22;8401;52.528;13.340;2023-03-31T03:52:32;11.00;99.90
16578;DHT22;8401;52.528;13.340;2023-03-31T03:54:58;11.00;99.90
16578;DHT22;8401;52.528;13.340;2023-03-31T03:57:23;10.90;99.90
16578;DHT22;8401;52.528;13.340;2023-03-31T03:59:49;10.90;99.90
16578;DHT22;8401;52.528;13.340;2023-03-31T04:02:15;11.00;99.90
16578;DHT22;8401;52.528;13.340;2023-03-31T04:04:40;11.00;99.90
16578;DHT22;8401;52.528;13.340;2023-03-31T04:07:06;11.00;99.90
16578;DHT22;8401;52.528;13.340;2023-03-31T04:09:31;11.00;99.90
16578;DHT22;8401;52.528;13.340;2023-03-31T04:11:57;11.00;99.90
16578;DHT22;8401;52.528;13.340;2023-03-31T04:14:23;11.00;99.90
16578;DHT22;8401;52.528;13.340;2023-03-31T04:16:50;11.00;99.90
16578;DHT22;8401;52.528;13.340;2023-03-31T04:19:18;11.00;99.90
16578;DHT22;8401;52.528;13.340;2023-03-31T04:21:46;11.00;99.90
16578;DHT22;8401;52.528;13.340;2023-03-31T04:24:15;10.90;99.90
16578;DHT22;8401;52.528;13.340;2023-03-31T04:26:46;11.00;99.90
16578;DHT22;8401;52.528;13.340;2023-03-31T04:29:15;11.00;99.90
16578;DHT22;8401;52.528;13.340;2023-03-31T04:31:41;10.90;99.90
16578;DHT22;8401;52.528;13.340;2023-03-31T04:34:12;10.90;99.90
16578;DHT22;8401;52.528;13.340;2023-03-31T04:36:43;11.00;99.90
16578;DHT22;8401;52.528;13.340;2023-03-31T04:39:15;11.00;99.90
16578;DHT22;8401;52.528;13.340;2023-03-31T04:41:41;11.10;99.90
16578;DHT22;8401;52.528;13.340;2023-03-31T04:44:06;11.00;99.90
16578;DHT22;8401;52.528;13.340;2023-03-31T04:46:33;11.00;99.90
16578;DHT22;8401;52.528;13.340;2023-03-31T04:49:00;11.00;99.90
16578;DHT22;8401;52.528;13.340;2023-03-31T04:51:26;11.00;99.90
16578;DHT22;8401;52.528;13.340;2023-03-31T04:53:52;11.00;99.90
16578;DHT22;8401;52.528;13.340;2023-03-31T04:56:17;11.00;99.90
16578;DHT22;8401;52.528;13.340;2023-03-31T04:58:43;11.00;99.90
16578;DHT22;8401;52.528;13.340;2023-03-31T05:01:09;11.00;99.90
16578;DHT22;8401;52.528;13.340;2023-03-31T05:03:38;11.00;99.90
16578;DHT22;8401;52.528;13.340;2023-03-31T05:06:03;11.00;99.90
16578;DHT22;8401;52.528;13.340;2023-03-31T05:08:29;10.90;99.90
16578;DHT22;8401;52.528;13.340;2023-03-31T05:10:55;10.90;99.90
16578;DHT22;8401;52.528;13.340;2023-03-31T05:13:22;10.80;99.90
16578;DHT22;8401;52.528;13.340;2023-03-31T05:15:48;10.80;99.90
16578;DHT22;8401;52.528;13.340;2023-03-31T05:18:16;10.80;99.90
16578;DHT22;8401;52.528;13.340;2023-03-31T05:20:41;10.80;99.90
16578;DHT22;8401;52.528;13.340;2023-03-31T05:23:07;10.70;99.90
16578;DHT22;8401;52.528;13.340;2023-03-31T05:25:33;10.60;99.90
16578;DHT22;8401;52.528;13.340;2023-03-31T05:27:59;10.70;99.90
16578;DHT22;8401;52.528;13.340;2023-03-31T05:30:26;10.80;99.90
16578;DHT22;8401;52.528;13.340;2023-03-31T05:32:52;10.80;99.90
16578;DHT22;8401;52.528;13.340;2023-03-31T05:35:18;10.80;99.90
16578;DHT22;8401;52.528;13.340;2023-03-31T05:37:44;10.70;99.90
16578;DHT22;8401;52.528;13.340;2023-03-31T05:40:09;10.70;99.90
16578;DHT22;8401;52.528;13.340;2023-03-31T05:42:36;10.80;99.90
16578;DHT22;8401;52.528;13.340;2023-03-31T05:45:02;10.80;99.90
16578;DHT22;8401;52.528;13.340;2023-03-31T05:47:27;10.80;99.90
16578;DHT22;8401;52.528;13.340;2023-03-31T05:49:53;11.00;99.90
16578;DHT22;8401;52.528;13.340;2023-03-31T05:52:18;11.00;99.90
16578;DHT22;8401;52.528;13.340;2023-03-31T05:54:44;11.10;99.90
16578;DHT22;8401;52.528;13.340;2023-03-31T05:57:10;11.10;99.90
16578;DHT22;8401;52.528;13.340;2023-03-31T05:59:36;11.10;99.90
16578;DHT22;8401;52.528;13.340;2023-03-31T06:02:03;11.10;99.90
16578;DHT22;8401;52.528;13.340;2023-03-31T06:04:29;11.10;99.90
16578;DHT22;8401;52.528;13.340;2023-03-31T06:06:57;11.10;99.90
16578;DHT22;8401;52.528;13.340;2023-03-31T06:09:23;11.10;99.90
16578;DHT22;8401;52.528;13.340;2023-03-31T06:11:48;11.10;99.90
16578;DHT22;8401;52.528;13.340;2023-03-31T06:14:14;11.10;99.90
16578;DHT22;8401;52.528;13.340;2023-03-31T06:16:40;11.00;99.90
16578;DHT22;8401;52.528;13.340;2023-03-31T06:19:05;11.10;99.90
16578;DHT22;8401;52.528;13.340;2023-03-31T06:21:31;11.20;99.90
16578;DHT22;8401;52.528;13.340;2023-03-31T06:23:57;11.40;99.90
16578;DHT22;8401;52.528;13.340;2023-03-31T06:26:24;11.20;99.90
16578;DHT22;8401;52.528;13.340;2023-03-31T06:28:50;11.20;99.90
16578;DHT22;8401;52.528;13.340;2023-03-31T06:31:19;11.20;99.90
16578;DHT22;8401;52.528;13.340;2023-03-31T06:33:45;11.20;99.90
16578;DHT22;8401;52.528;13.340;2023-03-31T06:36:13;11.20;99.90
16578;DHT22;8401;52.528;13.340;2023-03-31T06:38:40;11.10;99.90
16578;DHT22;8401;52.528;13.340;2023-03-31T06:41:06;11.20;99.90
16578;DHT22;8401;52.528;13.340;2023-03-31T06:43:33;11.20;99.90
16578;DHT22;8401;52.528;13.340;2023-03-31T06:45:59;11.20;99.90
16578;DHT22;8401;52.528;13.340;2023-03-31T06:48:25;11.20;99.90
16578;DHT22;8401;52.528;13.340;2023-03-31T06:50:54;11.30;99.90
16578;DHT22;8401;52.528;13.340;2023-03-31T06:53:20;11.30;99.90
16578;DHT22;8401;52.528;13.340;2023-03-31T06:55:46;11.30;99.90
16578;DHT22;8401;52.528;13.340;2023-03-31T06:58:12;11.50;99.90
16578;DHT22;8401;52.528;13.340;2023-03-31T07:00:38;11.60;99.90
16578;DHT22;8401;52.528;13.340;2023-03-31T07:03:04;11.60;99.90
16578;DHT22;8401;52.528;13.340;2023-03-31T07:05:31;11.80;99.90
16578;DHT22;8401;52.528;13.340;2023-03-31T07:07:58;12.00;99.90
16578;DHT22;8401;52.528;13.340;2023-03-31T07:10:26;12.20;99.90
16578;DHT22;8401;52.528;13.340;2023-03-31T07:12:52;12.40;99.90
16578;DHT22;8401;52.528;13.340;2023-03-31T07:15:17;12.70;99.90
16578;DHT22;8401;52.528;13.340;2023-03-31T07:17:43;12.90;99.90
16578;DHT22;8401;52.528;13.340;2023-03-31T07:20:12;12.90;99.90
16578;DHT22;8401;52.528;13.340;2023-03-31T07:22:42;12.90;99.90
16578;DHT22;8401;52.528;13.340;2023-03-31T07:25:09;12.90;99.90
16578;DHT22;8401;52.528;13.340;2023-03-31T07:27:36;13.10;99.90
16578;DHT22;8401;52.528;13.340;2023-03-31T07:30:06;13.10;99.90
16578;DHT22;8401;52.528;13.340;2023-03-31T07:32:32;13.30;99.90
16578;DHT22;8401;52.528;13.340;2023-03-31T07:34:58;13.50;99.90
16578;DHT22;8401;52.528;13.340;2023-03-31T07:37:24;13.70;99.90
16578;DHT22;8401;52.528;13.340;2023-03-31T07:39:50;13.60;99.90
16578;DHT22;8401;52.528;13.340;2023-03-31T07:42:15;13.70;99.90
16578;DHT22;8401;52.528;13.340;2023-03-31T07:44:41;13.80;99.90
16578;DHT22;8401;52.528;13.340;2023-03-31T07:47:07;13.90;99.90
16578;DHT22;8401;52.528;13.340;2023-03-31T07:49:33;13.80;99.90
16578;DHT22;8401;52.528;13.340;2023-03-31T07:52:00;13.70;99.90
16578;DHT22;8401;52.528;13.340;2023-03-31T07:54:26;13.80;99.90
16578;DHT22;8401;52.528;13.340;2023-03-31T07:56:52;14.10;99.90
16578;DHT22;8401;52.528;13.340;2023-03-31T07:59:18;14.20;99.90
16578;DHT22;8401;52.528;13.340;2023-03-31T08:01:43;14.70;99.90
16578;DHT22;8401;52.528;13.340;2023-03-31T08:04:10;14.80;99.90
16578;DHT22;8401;52.528;13.340;2023-03-31T08:06:37;14.70;99.90
16578;DHT22;8401;52.528;13.340;2023-03-31T08:09:04;14.50;99.90
16578;DHT22;8401;52.528;13.340;2023-03-31T08:11:31;14.70;99.90
16578;DHT22;8401;52.528;13.340;2023-03-31T08:13:57;14.60;99.90
16578;DHT22;8401;52.528;13.340;2023-03-31T08:16:22;14.80;99.90
16578;DHT22;8401;52.528;13.340;2023-03-31T08:18:48;15.20;99.90
16578;DHT22;8401;52.528;13.340;2023-03-31T08:21:14;15.30;99.90
16578;DHT22;8401;52.528;13.340;2023-03-31T08:23:40;15.30;99.90
16578;DHT22;8401;52.528;13.340;2023-03-31T08:26:14;15.30;99.90
16578;DHT22;8401;52.528;13.340;2023-03-31T08:28:42;15.00;99.90
16578;DHT22;8401;52.528;13.340;2023-03-31T08:31:08;14.90;99.90
16578;DHT22;8401;52.528;13.340;2023-03-31T08:33:35;15.40;99.90
16578;DHT22;8401;52.528;13.340;2023-03-31T08:36:06;15.70;99.90
16578;DHT22;8401;52.528;13.340;2023-03-31T08:38:34;15.90;99.90
16578;DHT22;8401;52.528;13.340;2023-03-31T08:41:03;16.10;99.90
16578;DHT22;8401;52.528;13.340;2023-03-31T08:43:35;16.20;99.90
16578;DHT22;8401;52.528;13.340;2023-03-31T08:46:03;16.40;99.90
16578;DHT22;8401;52.528;13.340;2023-03-31T08:48:38;16.70;99.90
16578;DHT22;8401;52.528;13.340;2023-03-31T08:51:40;16.70;99.90
16578;DHT22;8401;52.528;13.340;2023-03-31T08:54:16;17.20;99.90
16578;DHT22;8401;52.528;13.340;2023-03-31T08:56:46;17.00;99.90
16578;DHT22;8401;52.528;13.340;2023-03-31T08:59:29;16.60;99.90
16578;DHT22;8401;52.528;13.340;2023-03-31T09:10:23;16.50;99.90
16578;DHT22;8401;52.528;13.340;2023-03-31T09:18:31;19.10;99.90
16578;DHT22;8401;52.528;13.340;2023-03-31T09:27:08;19.90;99.90
16578;DHT22;8401;52.528;13.340;2023-03-31T09:29:51;19.80;99.90
16578;DHT22;8401;52.528;13.340;2023-03-31T09:32:27;19.50;99.90
16578;DHT22;8401;52.528;13.340;2023-03-31T09:34:59;19.90;99.90
16578;DHT22;8401;52.528;13.340;2023-03-31T09:37:30;20.30;99.90
16578;DHT22;8401;52.528;13.340;2023-03-31T09:39:59;21.10;99.90
16578;DHT22;8401;52.528;13.340;2023-03-31T09:42:25;20.50;99.90
16578;DHT22;8401;52.528;13.340;2023-03-31T09:44:51;20.50;99.90
16578;DHT22;8401;52.528;13.340;2023-03-31T09:47:25;20.50;99.90
16578;DHT22;8401;52.528;13.340;2023-03-31T09:49:53;20.20;99.90
16578;DHT22;8401;52.528;13.340;2023-03-31T09:52:30;20.00;99.90
16578;DHT22;8401;52.528;13.340;2023-03-31T09:55:02;19.30;99.90
16578;DHT22;8401;52.528;13.340;2023-03-31T09:57:34;18.70;99.90
16578;DHT22;8401;52.528;13.340;2023-03-31T10:02:49;17.80;99.90
16578;DHT22;8401;52.528;13.340;2023-03-31T10:05:36;17.40;99.90
16578;DHT22;8401;52.528;13.340;2023-03-31T10:08:49;16.50;99.90
16578;DHT22;8401;52.528;13.340;2023-03-31T10:13:49;16.00;99.90
16578;DHT22;8401;52.528;13.340;2023-03-31T10:18:52;15.70;99.90
16578;DHT22;8401;52.528;13.340;2023-03-31T10:21:24;15.60;99.90
16578;DHT22;8401;52.528;13.340;2023-03-31T10:23:51;15.60;99.90
16578;DHT22;8401;52.528;13.340;2023-03-31T10:26:25;15.30;99.90
16578;DHT22;8401;52.528;13.340;2023-03-31T10:28:52;15.40;99.90
16578;DHT22;8401;52.528;13.340;2023-03-31T10:31:24;15.50;99.90
16578;DHT22;8401;52.528;13.340;2023-03-31T10:33:51;15.90;99.90
16578;DHT22;8401;52.528;13.340;2023-03-31T10:36:26;16.00;99.90
16578;DHT22;8401;52.528;13.340;2023-03-31T10:38:53;16.60;99.90
16578;DHT22;8401;52.528;13.340;2023-03-31T10:41:21;17.00;99.90
16578;DHT22;8401;52.528;13.340;2023-03-31T10:43:55;17.00;99.90
16578;DHT22;8401;52.528;13.340;2023-03-31T10:49:26;16.40;99.90
16578;DHT22;8401;52.528;13.340;2023-03-31T10:51:57;16.30;99.90
16578;DHT22;8401;52.528;13.340;2023-03-31T10:54:24;16.20;99.90
16578;DHT22;8401;52.528;13.340;2023-03-31T10:57:01;15.80;99.90
16578;DHT22;8401;52.528;13.340;2023-03-31T11:04:58;15.70;99.90
16578;DHT22;8401;52.528;13.340;2023-03-31T11:10:09;15.90;99.90
16578;DHT22;8401;52.528;13.340;2023-03-31T11:12:55;16.10;99.90
16578;DHT22;8401;52.528;13.340;2023-03-31T11:21:19;16.00;99.90
16578;DHT22;8401;52.528;13.340;2023-03-31T11:35:18;18.10;99.90
16578;DHT22;8401;52.528;13.340;2023-03-31T11:40:46;17.70;99.90
16578;DHT22;8401;52.528;13.340;2023-03-31T11:43:33;17.30;99.90
16578;DHT22;8401;52.528;13.340;2023-03-31T11:46:09;16.80;99.90
16578;DHT22;8401;52.528;13.340;2023-03-31T11:48:46;17.20;99.90
16578;DHT22;8401;52.528;13.340;2023-03-31T11:51:24;16.40;99.90
16578;DHT22;8401;52.528;13.340;2023-03-31T11:53:52;16.70;99.90
16578;DHT22;8401;52.528;13.340;2023-03-31T11:56:21;17.00;99.90
16578;DHT22;8401;52.528;13.340;2023-03-31T11:58:54;16.70;99.90
16578;DHT22;8401;52.528;13.340;2023-03-31T12:06:35;16.70;99.90
16578;DHT22;8401;52.528;13.340;2023-03-31T12:09:20;16.60;99.90
16578;DHT22;8401;52.528;13.340;2023-03-31T12:17:17;15.50;99.90
16578;DHT22;8401;52.528;13.340;2023-03-31T12:22:34;14.90;99.90
16578;DHT22;8401;52.528;13.340;2023-03-31T12:25:03;15.00;99.90
16578;DHT22;8401;52.528;13.340;2023-03-31T12:32:45;15.60;99.90
16578;DHT22;8401;52.528;13.340;2023-03-31T12:35:25;15.60;99.90
16578;DHT22;8401;52.528;13.340;2023-03-31T12:41:02;15.60;99.90
16578;DHT22;8401;52.528;13.340;2023-03-31T12:49:37;14.90;99.90
16578;DHT22;8401;52.528;13.340;2023-03-31T12:52:14;14.70;99.90
16578;DHT22;8401;52.528;13.340;2023-03-31T12:54:56;14.60;99.90
16578;DHT22;8401;52.528;13.340;2023-03-31T12:57:24;14.80;99.90
16578;DHT22;8401;52.528;13.340;2023-03-31T13:00:18;15.10;99.90
16578;DHT22;8401;52.528;13.340;2023-03-31T13:02:46;14.70;99.90
16578;DHT22;8401;52.528;13.340;2023-03-31T13:08:07;13.20;99.90
16578;DHT22;8401;52.528;13.340;2023-03-31T13:10:56;12.80;99.90
16578;DHT22;8401;52.528;13.340;2023-03-31T13:13:23;12.50;99.90
16578;DHT22;8401;52.528;13.340;2023-03-31T13:15:55;12.10;99.90
16578;DHT22;8401;52.528;13.340;2023-03-31T13:18:21;11.90;99.90
16578;DHT22;8401;52.528;13.340;2023-03-31T13:20:59;11.80;99.90
16578;DHT22;8401;52.528;13.340;2023-03-31T13:23:25;11.80;99.90
16578;DHT22;8401;52.528;13.340;2023-03-31T13:25:54;11.80;99.90
16578;DHT22;8401;52.528;13.340;2023-03-31T13:28:30;11.80;99.90
16578;DHT22;8401;52.528;13.340;2023-03-31T13:31:00;11.80;99.90
16578;DHT22;8401;52.528;13.340;2023-03-31T13:33:30;11.70;99.90
16578;DHT22;8401;52.528;13.340;2023-03-31T13:56:34;11.40;99.90
16578;DHT22;8401;52.528;13.340;2023-03-31T14:05:06;11.00;99.90
16578;DHT22;8401;52.528;13.340;2023-03-31T14:07:44;10.90;99.90
16578;DHT22;8401;52.528;13.340;2023-03-31T14:10:32;10.80;99.90
16578;DHT22;8401;52.528;13.340;2023-03-31T14:13:13;10.70;99.90
16578;DHT22;8401;52.528;13.340;2023-03-31T14:18:31;10.60;99.90
16578;DHT22;8401;52.528;13.340;2023-03-31T14:21:05;10.60;99.90
16578;DHT22;8401;52.528;13.340;2023-03-31T14:39:51;10.80;99.90
16578;DHT22;8401;52.528;13.340;2023-03-31T14:42:28;10.90;99.90
16578;DHT22;8401;52.528;13.340;2023-03-31T14:45:01;10.80;99.90
16578;DHT22;8401;52.528;13.340;2023-03-31T14:47:27;10.80;99.90
16578;DHT22;8401;52.528;13.340;2023-03-31T14:50:07;10.80;99.90
16578;DHT22;8401;52.528;13.340;2023-03-31T14:52:34;10.80;99.90
16578;DHT22;8401;52.528;13.340;2023-03-31T14:55:00;10.90;99.90
16578;DHT22;8401;52.528;13.340;2023-03-31T14:57:35;10.80;99.90
16578;DHT22;8401;52.528;13.340;2023-03-31T15:00:06;10.90;99.90
16578;DHT22;8401;52.528;13.340;2023-03-31T15:02:37;10.80;99.90
16578;DHT22;8401;52.528;13.340;2023-03-31T15:05:08;10.80;99.90
16578;DHT22;8401;52.528;13.340;2023-03-31T15:07:35;10.80;99.90
16578;DHT22;8401;52.528;13.340;2023-03-31T15:10:03;10.80;99.90
16578;DHT22;8401;52.528;13.340;2023-03-31T15:12:29;10.70;99.90
16578;DHT22;8401;52.528;13.340;2023-03-31T15:15:03;10.80;99.90
16578;DHT22;8401;52.528;13.340;2023-03-31T15:17:35;10.80;99.90
16578;DHT22;8401;52.528;13.340;2023-03-31T15:20:30;10.80;99.90
16578;DHT22;8401;52.528;13.340;2023-03-31T15:22:57;10.80;99.90
16578;DHT22;8401;52.528;13.340;2023-03-31T15:25:28;10.80;99.90
16578;DHT22;8401;52.528;13.340;2023-03-31T15:27:57;10.80;99.90
16578;DHT22;8401;52.528;13.340;2023-03-31T15:30:26;10.80;99.90
16578;DHT22;8401;52.528;13.340;2023-03-31T15:32:52;10.80;99.90
16578;DHT22;8401;52.528;13.340;2023-03-31T15:35:22;10.80;99.90
16578;DHT22;8401;52.528;13.340;2023-03-31T15:37:50;10.70;99.90
16578;DHT22;8401;52.528;13.340;2023-03-31T15:40:21;10.80;99.90
16578;DHT22;8401;52.528;13.340;2023-03-31T15:42:48;10.80;99.90
16578;DHT22;8401;52.528;13.340;2023-03-31T15:48:01;10.80;99.90
16578;DHT22;8401;52.528;13.340;2023-03-31T15:50:28;10.80;99.90
16578;DHT22;8401;52.528;13.340;2023-03-31T15:52:55;10.90;99.90
16578;DHT22;8401;52.528;13.340;2023-03-31T15:55:28;10.80;99.90
16578;DHT22;8401;52.528;13.340;2023-03-31T15:57:56;10.90;99.90
16578;DHT22;8401;52.528;13.340;2023-03-31T16:00:44;10.90;99.90
16578;DHT22;8401;52.528;13.340;2023-03-31T16:03:23;10.90;99.90
16578;DHT22;8401;52.528;13.340;2023-03-31T16:05:58;10.90;99.90
16578;DHT22;8401;52.528;13.340;2023-03-31T16:11:10;11.00;99.90
16578;DHT22;8401;52.528;13.340;2023-03-31T16:13:39;11.10;99.90
16578;DHT22;8401;52.528;13.340;2023-03-31T16:16:11;11.10;99.90
16578;DHT22;8401;52.528;13.340;2023-03-31T16:18:50;11.10;99.90
16578;DHT22;8401;52.528;13.340;2023-03-31T16:21:21;11.10;99.90
16578;DHT22;8401;52.528;13.340;2023-03-31T16:23:56;11.10;99.90
16578;DHT22;8401;52.528;13.340;2023-03-31T16:26:23;11.20;99.90
16578;DHT22;8401;52.528;13.340;2023-03-31T16:28:51;11.10;99.90
16578;DHT22;8401;52.528;13.340;2023-03-31T16:31:36;11.10;99.90
16578;DHT22;8401;52.528;13.340;2023-03-31T16:34:08;11.10;99.90
16578;DHT22;8401;52.528;13.340;2023-03-31T16:36:35;11.10;99.90
16578;DHT22;8401;52.528;13.340;2023-03-31T16:39:02;11.00;99.90
16578;DHT22;8401;52.528;13.340;2023-03-31T16:41:30;11.10;99.90
16578;DHT22;8401;52.528;13.340;2023-03-31T16:43:56;11.20;99.90
16578;DHT22;8401;52.528;13.340;2023-03-31T16:46:23;11.10;99.90
16578;DHT22;8401;52.528;13.340;2023-03-31T16:48:49;11.20;99.90
16578;DHT22;8401;52.528;13.340;2023-03-31T16:51:15;11.20;99.90
16578;DHT22;8401;52.528;13.340;2023-03-31T16:53:42;11.10;99.90
16578;DHT22;8401;52.528;13.340;2023-03-31T16:56:08;11.10;99.90
16578;DHT22;8401;52.528;13.340;2023-03-31T16:58:35;11.00;99.90
16578;DHT22;8401;52.528;13.340;2023-03-31T17:01:02;11.00;99.90
16578;DHT22;8401;52.528;13.340;2023-03-31T17:03:29;10.90;99.90
16578;DHT22;8401;52.528;13.340;2023-03-31T17:05:56;10.90;99.90
16578;DHT22;8401;52.528;13.340;2023-03-31T17:08:24;10.90;99.90
16578;DHT22;8401;52.528;13.340;2023-03-31T17:11:11;10.90;99.90
16578;DHT22;8401;52.528;13.340;2023-03-31T17:13:39;10.90;99.90
16578;DHT22;8401;52.528;13.340;2023-03-31T17:16:06;10.90;99.90
16578;DHT22;8401;52.528;13.340;2023-03-31T17:18:32;10.90;99.90
16578;DHT22;8401;52.528;13.340;2023-03-31T17:21:09;10.90;99.90
16578;DHT22;8401;52.528;13.340;2023-03-31T17:23:36;11.00;99.90
16578;DHT22;8401;52.528;13.340;2023-03-31T17:26:02;11.00;99.90
16578;DHT22;8401;52.528;13.340;2023-03-31T17:28:29;11.10;99.90
16578;DHT22;8401;52.528;13.340;2023-03-31T17:30:55;11.00;99.90
16578;DHT22;8401;52.528;13.340;2023-03-31T17:33:21;11.00;99.90
16578;DHT22;8401;52.528;13.340;2023-03-31T17:35:47;11.00;99.90
16578;DHT22;8401;52.528;13.340;2023-03-31T17:38:13;11.00;99.90
16578;DHT22;8401;52.528;13.340;2023-03-31T17:40:39;11.00;99.90
16578;DHT22;8401;52.528;13.340;2023-03-31T17:43:05;11.00;99.90
16578;DHT22;8401;52.528;13.340;2023-03-31T17:45:31;10.90;99.90
16578;DHT22;8401;52.528;13.340;2023-03-31T17:47:58;11.00;99.90
16578;DHT22;8401;52.528;13.340;2023-03-31T17:50:25;11.00;99.90
16578;DHT22;8401;52.528;13.340;2023-03-31T17:52:50;11.00;99.90
16578;DHT22;8401;52.528;13.340;2023-03-31T17:55:17;11.00;99.90
16578;DHT22;8401;52.528;13.340;2023-03-31T17:57:43;11.00;99.90
16578;DHT22;8401;52.528;13.340;2023-03-31T18:00:09;11.00;99.90
16578;DHT22;8401;52.528;13.340;2023-03-31T18:02:36;11.00;99.90
16578;DHT22;8401;52.528;13.340;2023-03-31T18:05:02;11.00;99.90
16578;DHT22;8401;52.528;13.340;2023-03-31T18:07:29;11.00;99.90
16578;DHT22;8401;52.528;13.340;2023-03-31T18:09:54;10.90;99.90
16578;DHT22;8401;52.528;13.340;2023-03-31T18:12:20;10.90;99.90
16578;DHT22;8401;52.528;13.340;2023-03-31T18:14:45;10.90;99.90
16578;DHT22;8401;52.528;13.340;2023-03-31T18:17:11;10.90;99.90
16578;DHT22;8401;52.528;13.340;2023-03-31T18:19:40;10.90;99.90
16578;DHT22;8401;52.528;13.340;2023-03-31T18:22:06;11.00;99.90
16578;DHT22;8401;52.528;13.340;2023-03-31T18:24:31;11.00;99.90
16578;DHT22;8401;52.528;13.340;2023-03-31T18:26:58;11.00;99.90
16578;DHT22;8401;52.528;13.340;2023-03-31T18:29:24;11.00;99.90
16578;DHT22;8401;52.528;13.340;2023-03-31T18:31:49;11.00;99.90
16578;DHT22;8401;52.528;13.340;2023-03-31T18:34:15;11.00;99.90
16578;DHT22;8401;52.528;13.340;2023-03-31T18:36:41;11.00;99.90
16578;DHT22;8401;52.528;13.340;2023-03-31T18:39:06;11.00;99.90
16578;DHT22;8401;52.528;13.340;2023-03-31T18:41:32;11.00;99.90
16578;DHT22;8401;52.528;13.340;2023-03-31T18:43:58;11.00;99.90
16578;DHT22;8401;52.528;13.340;2023-03-31T18:46:24;11.00;99.90
16578;DHT22;8401;52.528;13.340;2023-03-31T18:48:50;11.00;99.90
16578;DHT22;8401;52.528;13.340;2023-03-31T18:51:15;11.10;99.90
16578;DHT22;8401;52.528;13.340;2023-03-31T18:53:41;11.10;99.90
16578;DHT22;8401;52.528;13.340;2023-03-31T18:56:07;11.10;99.90
16578;DHT22;8401;52.528;13.340;2023-03-31T18:58:33;11.10;99.90